EmpreSS Of The Seas — C6CM8 — position and weather

sailwx.info

Track history (hours):
 
Tides and Currents Weather Stations Pressure Air Temp Water Temp Dewpoint Dewpoint Depression Visibility Wind Speed Wind Dir Waves Ship Positions

EmpreSS Of The Seas

Last reported at 2018-Feb-17 23:19 UTC. Time now 2018-Feb-20 11:32 UTC.
Position N 25°30' W 079°60'.

Length 211 m; draft 7.3 m.

Type: Passenger vessel. MMSI: 311000515.

Date/timePositionNaut miles runAvg speedWind from/ knotsBaromVisibWave heightAir tempDewpointWater temp
2018-Feb-17 23:19N 25°30' W 079°60'411.7
2018-Feb-17 23:00N 25°34' W 079°60'612.3
2018-Feb-17 22:30N 25°40' W 080°01'611.2
2018-Feb-17 22:00N 25°45' W 080°04'5 8.9
2018-Feb-17 21:30N 25°46' W 080°09'2 3.1
2018-Feb-17 21:01N 25°46' W 080°11'0 0.0
2018-Feb-17 20:28N 25°46' W 080°11'0 0.0
2018-Feb-17 19:58N 25°46' W 080°11'0 0.0
2018-Feb-17 19:28N 25°46' W 080°11'0 0.0
2018-Feb-17 18:58N 25°46' W 080°11'0 0.0
2018-Feb-17 18:28N 25°46' W 080°11'0 0.0
2018-Feb-17 17:52N 25°46' W 080°11'0 0.0
2018-Feb-17 17:28N 25°46' W 080°11'0 0.0
2018-Feb-17 16:58N 25°46' W 080°11'0 0.0
2018-Feb-17 16:28N 25°46' W 080°11'0 0.0
2018-Feb-17 15:58N 25°46' W 080°11'0 0.0
2018-Feb-17 15:28N 25°46' W 080°11'0 0.0
2018-Feb-17 14:58N 25°46' W 080°11'0 0.0
2018-Feb-17 14:28N 25°46' W 080°11'0 0.0
2018-Feb-17 13:58N 25°46' W 080°11'0 0.0
2018-Feb-17 13:28N 25°46' W 080°11'0 0.0
2018-Feb-17 12:58N 25°46' W 080°11'0 0.0
2018-Feb-17 12:28N 25°46' W 080°11'0 0.0
2018-Feb-17 11:58N 25°46' W 080°11'1 1.4
2018-Feb-17 11:30N 25°46' W 080°10'2 4.5
2018-Feb-17 11:00N 25°46' W 080°08'611.5
2018-Feb-17 10:30N 25°47' W 080°02'5 9.4
2018-Feb-17 10:00N 25°49' W 079°57'611.7
2018-Feb-17 09:30N 25°52' W 079°51'612.8
2018-Feb-17 09:00N 25°54' W 079°44'713.4
2018-Feb-17 08:30N 25°57' W 079°38'713.3
2018-Feb-17 08:00N 26°01' W 079°32'  
2018-Feb-14 13:36N 25°50' W 079°35'111.9
2018-Feb-14 13:30N 25°49' W 079°35'612.3
2018-Feb-14 13:00N 25°43' W 079°36'612.3
2018-Feb-14 12:30N 25°36' W 079°36'24 0.7
2018-Feb-13 03:09N 25°28' W 080°01'215.0
2018-Feb-13 03:00N 25°30' W 080°00'714.4
2018-Feb-13 02:30N 25°37' W 080°01'815.0
2018-Feb-13 02:00N 25°44' W 080°04'5 9.4
2018-Feb-13 01:30N 25°46' W 080°09'2 3.4
2018-Feb-13 00:58N 25°46' W 080°11'0 0.0
2018-Feb-13 00:28N 25°46' W 080°11'0 0.0
2018-Feb-12 23:58N 25°46' W 080°11'0 0.0
2018-Feb-12 23:28N 25°46' W 080°11'0 0.0
2018-Feb-12 22:55N 25°46' W 080°11'0 0.0
2018-Feb-12 22:28N 25°46' W 080°11'0 0.0
2018-Feb-12 21:55N 25°46' W 080°11'0 0.0
2018-Feb-12 21:28N 25°46' W 080°11'0 0.0
2018-Feb-12 20:58N 25°46' W 080°11'0 0.0
2018-Feb-12 20:28N 25°46' W 080°11'0 0.0
2018-Feb-12 19:58N 25°46' W 080°11'0 0.0
2018-Feb-12 19:28N 25°46' W 080°11'0 0.0
2018-Feb-12 18:58N 25°46' W 080°11'0 0.0
2018-Feb-12 18:28N 25°46' W 080°11'0 0.0
2018-Feb-12 17:58N 25°46' W 080°11'0 0.0
2018-Feb-12 17:28N 25°46' W 080°11'0 0.0
2018-Feb-12 16:58N 25°46' W 080°11'0 0.0
2018-Feb-12 16:25N 25°46' W 080°11'0 0.0
2018-Feb-12 15:58N 25°46' W 080°11'0 0.0
2018-Feb-12 15:16N 25°46' W 080°11'0 0.0
2018-Feb-12 14:58N 25°46' W 080°11'0 0.0
2018-Feb-12 14:28N 25°46' W 080°11'0 0.0
2018-Feb-12 13:58N 25°46' W 080°11'0 0.0
2018-Feb-12 13:28N 25°46' W 080°11'0 0.0
2018-Feb-12 12:58N 25°46' W 080°11'0 0.0
2018-Feb-12 12:28N 25°46' W 080°11'0 0.0
2018-Feb-12 11:58N 25°46' W 080°11'0 0.0
2018-Feb-12 11:28N 25°46' W 080°11'1 1.5
2018-Feb-12 11:00N 25°46' W 080°10'3 6.0
2018-Feb-12 10:30N 25°45' W 080°07'5 9.3
2018-Feb-12 10:01N 25°47' W 080°02'713.9
2018-Feb-12 09:31N 25°50' W 079°55'714.6
2018-Feb-12 09:01N 25°53' W 079°48'815.1
2018-Feb-12 08:30N 25°56' W 079°40'815.3
2018-Feb-12 08:00N 26°00' W 079°33'  
2018-Feb-08 23:00N 25°35' W 079°59'16 2.7
2018-Feb-08 17:00N 25°47' W 080°11'0 0.0
2018-Feb-08 16:30N 25°47' W 080°11'0 0.0
2018-Feb-08 14:00N 25°47' W 080°11'0 0.0
2018-Feb-08 13:30N 25°47' W 080°11'0 0.0
2018-Feb-08 12:00N 25°47' W 080°11'2 3.5
2018-Feb-08 11:30N 25°46' W 080°09'1110.8
2018-Feb-08 10:30N 25°43' W 079°57'  
Track history (hours):
 
Tides and Currents Weather Stations Pressure Air Temp Water Temp Dewpoint Dewpoint Depression Visibility Wind Speed Wind Dir Waves Ship Positions

EmpreSS Of The Seas

Last reported at 2018-Feb-17 23:19 UTC. Time now 2018-Feb-20 11:32 UTC.
Position N 25°30' W 079°60'.

Length 211 m; draft 7.3 m.

Type: Passenger vessel. MMSI: 311000515.

Date/timePositionNaut miles runAvg speedWind from/ knotsBaromVisibWave heightAir tempDewpointWater temp
2018-Feb-17 23:19N 25°30' W 079°60'411.7
2018-Feb-17 23:00N 25°34' W 079°60'612.3
2018-Feb-17 22:30N 25°40' W 080°01'611.2
2018-Feb-17 22:00N 25°45' W 080°04'5 8.9
2018-Feb-17 21:30N 25°46' W 080°09'2 3.1
2018-Feb-17 21:01N 25°46' W 080°11'0 0.0
2018-Feb-17 20:28N 25°46' W 080°11'0 0.0
2018-Feb-17 19:58N 25°46' W 080°11'0 0.0
2018-Feb-17 19:28N 25°46' W 080°11'0 0.0
2018-Feb-17 18:58N 25°46' W 080°11'0 0.0
2018-Feb-17 18:28N 25°46' W 080°11'0 0.0
2018-Feb-17 17:52N 25°46' W 080°11'0 0.0
2018-Feb-17 17:28N 25°46' W 080°11'0 0.0
2018-Feb-17 16:58N 25°46' W 080°11'0 0.0
2018-Feb-17 16:28N 25°46' W 080°11'0 0.0
2018-Feb-17 15:58N 25°46' W 080°11'0 0.0
2018-Feb-17 15:28N 25°46' W 080°11'0 0.0
2018-Feb-17 14:58N 25°46' W 080°11'0 0.0
2018-Feb-17 14:28N 25°46' W 080°11'0 0.0
2018-Feb-17 13:58N 25°46' W 080°11'0 0.0
2018-Feb-17 13:28N 25°46' W 080°11'0 0.0
2018-Feb-17 12:58N 25°46' W 080°11'0 0.0
2018-Feb-17 12:28N 25°46' W 080°11'0 0.0
2018-Feb-17 11:58N 25°46' W 080°11'1 1.4
2018-Feb-17 11:30N 25°46' W 080°10'2 4.5
2018-Feb-17 11:00N 25°46' W 080°08'611.5
2018-Feb-17 10:30N 25°47' W 080°02'5 9.4
2018-Feb-17 10:00N 25°49' W 079°57'611.7
2018-Feb-17 09:30N 25°52' W 079°51'612.8
2018-Feb-17 09:00N 25°54' W 079°44'713.4
2018-Feb-17 08:30N 25°57' W 079°38'713.3
2018-Feb-17 08:00N 26°01' W 079°32'  
2018-Feb-14 13:36N 25°50' W 079°35'111.9
2018-Feb-14 13:30N 25°49' W 079°35'612.3
2018-Feb-14 13:00N 25°43' W 079°36'612.3
2018-Feb-14 12:30N 25°36' W 079°36'24 0.7
2018-Feb-13 03:09N 25°28' W 080°01'215.0
2018-Feb-13 03:00N 25°30' W 080°00'714.4
2018-Feb-13 02:30N 25°37' W 080°01'815.0
2018-Feb-13 02:00N 25°44' W 080°04'5 9.4
2018-Feb-13 01:30N 25°46' W 080°09'2 3.4
2018-Feb-13 00:58N 25°46' W 080°11'0 0.0
2018-Feb-13 00:28N 25°46' W 080°11'0 0.0
2018-Feb-12 23:58N 25°46' W 080°11'0 0.0
2018-Feb-12 23:28N 25°46' W 080°11'0 0.0
2018-Feb-12 22:55N 25°46' W 080°11'0 0.0
2018-Feb-12 22:28N 25°46' W 080°11'0 0.0
2018-Feb-12 21:55N 25°46' W 080°11'0 0.0
2018-Feb-12 21:28N 25°46' W 080°11'0 0.0
2018-Feb-12 20:58N 25°46' W 080°11'0 0.0
2018-Feb-12 20:28N 25°46' W 080°11'0 0.0
2018-Feb-12 19:58N 25°46' W 080°11'0 0.0
2018-Feb-12 19:28N 25°46' W 080°11'0 0.0
2018-Feb-12 18:58N 25°46' W 080°11'0 0.0
2018-Feb-12 18:28N 25°46' W 080°11'0 0.0
2018-Feb-12 17:58N 25°46' W 080°11'0 0.0
2018-Feb-12 17:28N 25°46' W 080°11'0 0.0
2018-Feb-12 16:58N 25°46' W 080°11'0 0.0
2018-Feb-12 16:25N 25°46' W 080°11'0 0.0
2018-Feb-12 15:58N 25°46' W 080°11'0 0.0
2018-Feb-12 15:16N 25°46' W 080°11'0 0.0
2018-Feb-12 14:58N 25°46' W 080°11'0 0.0
2018-Feb-12 14:28N 25°46' W 080°11'0 0.0
2018-Feb-12 13:58N 25°46' W 080°11'0 0.0
2018-Feb-12 13:28N 25°46' W 080°11'0 0.0
2018-Feb-12 12:58N 25°46' W 080°11'0 0.0
2018-Feb-12 12:28N 25°46' W 080°11'0 0.0
2018-Feb-12 11:58N 25°46' W 080°11'0 0.0
2018-Feb-12 11:28N 25°46' W 080°11'1 1.5
2018-Feb-12 11:00N 25°46' W 080°10'3 6.0
2018-Feb-12 10:30N 25°45' W 080°07'5 9.3
2018-Feb-12 10:01N 25°47' W 080°02'713.9
2018-Feb-12 09:31N 25°50' W 079°55'714.6
2018-Feb-12 09:01N 25°53' W 079°48'815.1
2018-Feb-12 08:30N 25°56' W 079°40'815.3
2018-Feb-12 08:00N 26°00' W 079°33'  
2018-Feb-08 23:00N 25°35' W 079°59'16 2.7
2018-Feb-08 17:00N 25°47' W 080°11'0 0.0
2018-Feb-08 16:30N 25°47' W 080°11'0 0.0
2018-Feb-08 14:00N 25°47' W 080°11'0 0.0
2018-Feb-08 13:30N 25°47' W 080°11'0 0.0
2018-Feb-08 12:00N 25°47' W 080°11'2 3.5
2018-Feb-08 11:30N 25°46' W 080°09'1110.8
2018-Feb-08 10:30N 25°43' W 079°57'  

Dump ship's entire track history